Terminal Aerodrome Forecast
Issued by NWS

Home | Current Version | Previous Version | Text Only | Print | Product List | Glossary On
Versions: 1 2 3 4 5 6 7 8 9 10 11 12 13 14 15 16 17 18 19 20 21 22 23 24 25 26 27 28 29 30 31 32
821
FTUS46 KEKA 270011 CCA
TAFCEC
TAF COR
KCEC 270011Z 2700/2724 22012KT 6SM -RA BR SCT006 SCT012 OVC025
      TEMPO 2700/2702 3SM -RA BR SCT025 BKN035
     FM270200 18008KT 6SM -RA BR OVC025
      TEMPO 2702/2706 4SM -RA BR SCT005 OVC015
     FM271500 VRB05KT P6SM -SHRA OVC050
     FM271700 27007KT P6SM BKN100=

USA.gov is the U.S. government's official web portal to all federal, state and local government web resources and services.